sensor_id;sensor_type;location;lat;lon;timestamp;P1;durP1;ratioP1;P2;durP2;ratioP2
70455;SDS011;57916;51.996;5.180;2023-03-23T00:00:08;6.30;;;3.67;;
70455;SDS011;57916;51.996;5.180;2023-03-23T00:02:39;9.23;;;3.45;;
70455;SDS011;57916;51.996;5.180;2023-03-23T00:05:05;5.90;;;3.50;;
70455;SDS011;57916;51.996;5.180;2023-03-23T00:07:32;5.47;;;3.10;;
70455;SDS011;57916;51.996;5.180;2023-03-23T00:09:59;6.07;;;3.50;;
70455;SDS011;57916;51.996;5.180;2023-03-23T00:12:29;6.35;;;3.50;;
70455;SDS011;57916;51.996;5.180;2023-03-23T00:15:03;7.22;;;3.53;;
70455;SDS011;57916;51.996;5.180;2023-03-23T00:17:30;6.03;;;3.40;;
70455;SDS011;57916;51.996;5.180;2023-03-23T00:19:58;8.77;;;3.20;;
70455;SDS011;57916;51.996;5.180;2023-03-23T00:22:26;6.00;;;3.30;;
70455;SDS011;57916;51.996;5.180;2023-03-23T00:24:52;8.38;;;3.13;;
70455;SDS011;57916;51.996;5.180;2023-03-23T00:27:19;6.35;;;3.30;;
70455;SDS011;57916;51.996;5.180;2023-03-23T00:29:49;7.53;;;3.50;;
70455;SDS011;57916;51.996;5.180;2023-03-23T00:32:20;9.05;;;3.38;;
70455;SDS011;57916;51.996;5.180;2023-03-23T00:34:52;7.55;;;3.03;;
70455;SDS011;57916;51.996;5.180;2023-03-23T00:37:19;5.93;;;2.78;;
70455;SDS011;57916;51.996;5.180;2023-03-23T00:39:45;6.50;;;2.90;;
70455;SDS011;57916;51.996;5.180;2023-03-23T00:42:12;7.20;;;2.70;;
70455;SDS011;57916;51.996;5.180;2023-03-23T00:44:39;5.25;;;2.75;;
70455;SDS011;57916;51.996;5.180;2023-03-23T00:47:05;4.93;;;2.70;;
70455;SDS011;57916;51.996;5.180;2023-03-23T00:49:34;4.95;;;2.53;;
70455;SDS011;57916;51.996;5.180;2023-03-23T00:52:00;4.38;;;2.70;;
70455;SDS011;57916;51.996;5.180;2023-03-23T00:54:27;5.40;;;2.80;;
70455;SDS011;57916;51.996;5.180;2023-03-23T00:56:56;9.43;;;2.95;;
70455;SDS011;57916;51.996;5.180;2023-03-23T00:59:22;5.07;;;2.78;;
70455;SDS011;57916;51.996;5.180;2023-03-23T01:01:49;5.82;;;2.90;;
70455;SDS011;57916;51.996;5.180;2023-03-23T01:04:15;5.35;;;3.03;;
70455;SDS011;57916;51.996;5.180;2023-03-23T01:06:42;3.10;;;2.80;;
70455;SDS011;57916;51.996;5.180;2023-03-23T01:09:11;5.00;;;2.60;;
70455;SDS011;57916;51.996;5.180;2023-03-23T01:11:42;4.43;;;2.80;;
70455;SDS011;57916;51.996;5.180;2023-03-23T01:14:13;4.55;;;2.63;;
70455;SDS011;57916;51.996;5.180;2023-03-23T01:16:40;4.70;;;2.67;;
70455;SDS011;57916;51.996;5.180;2023-03-23T01:19:06;5.70;;;2.75;;
70455;SDS011;57916;51.996;5.180;2023-03-23T01:21:32;5.82;;;2.83;;
70455;SDS011;57916;51.996;5.180;2023-03-23T01:23:58;4.20;;;2.83;;
70455;SDS011;57916;51.996;5.180;2023-03-23T01:26:25;4.60;;;2.65;;
70455;SDS011;57916;51.996;5.180;2023-03-23T01:28:52;4.93;;;2.72;;
70455;SDS011;57916;51.996;5.180;2023-03-23T01:31:19;3.10;;;2.67;;
70455;SDS011;57916;51.996;5.180;2023-03-23T01:33:46;4.15;;;2.95;;
70455;SDS011;57916;51.996;5.180;2023-03-23T01:36:14;4.30;;;3.10;;
70455;SDS011;57916;51.996;5.180;2023-03-23T01:38:44;6.07;;;3.07;;
70455;SDS011;57916;51.996;5.180;2023-03-23T01:41:11;4.93;;;2.95;;
70455;SDS011;57916;51.996;5.180;2023-03-23T01:46:34;5.32;;;2.85;;
70455;SDS011;57916;51.996;5.180;2023-03-23T01:49:07;4.43;;;2.80;;
70455;SDS011;57916;51.996;5.180;2023-03-23T01:51:53;4.90;;;3.00;;
70455;SDS011;57916;51.996;5.180;2023-03-23T01:54:23;4.18;;;3.03;;
70455;SDS011;57916;51.996;5.180;2023-03-23T01:56:51;4.60;;;3.00;;
70455;SDS011;57916;51.996;5.180;2023-03-23T01:59:29;3.08;;;2.88;;
70455;SDS011;57916;51.996;5.180;2023-03-23T02:02:12;4.20;;;2.78;;
70455;SDS011;57916;51.996;5.180;2023-03-23T02:04:41;3.55;;;2.80;;
70455;SDS011;57916;51.996;5.180;2023-03-23T02:07:08;3.78;;;3.10;;
70455;SDS011;57916;51.996;5.180;2023-03-23T02:09:34;4.32;;;2.85;;
70455;SDS011;57916;51.996;5.180;2023-03-23T02:12:00;3.35;;;3.05;;
70455;SDS011;57916;51.996;5.180;2023-03-23T02:14:27;5.35;;;2.78;;
70455;SDS011;57916;51.996;5.180;2023-03-23T02:19:48;5.20;;;3.00;;
70455;SDS011;57916;51.996;5.180;2023-03-23T02:31:07;7.10;;;3.35;;
70455;SDS011;57916;51.996;5.180;2023-03-23T02:39:38;4.10;;;3.60;;
70455;SDS011;57916;51.996;5.180;2023-03-23T02:42:15;5.10;;;3.40;;
70455;SDS011;57916;51.996;5.180;2023-03-23T02:44:47;4.70;;;3.58;;
70455;SDS011;57916;51.996;5.180;2023-03-23T02:47:16;7.15;;;3.60;;
70455;SDS011;57916;51.996;5.180;2023-03-23T02:49:45;6.20;;;3.67;;
70455;SDS011;57916;51.996;5.180;2023-03-23T02:52:17;4.80;;;3.33;;
70455;SDS011;57916;51.996;5.180;2023-03-23T02:54:48;3.92;;;2.90;;
70455;SDS011;57916;51.996;5.180;2023-03-23T02:57:14;3.80;;;2.47;;
70455;SDS011;57916;51.996;5.180;2023-03-23T02:59:43;4.85;;;2.35;;
70455;SDS011;57916;51.996;5.180;2023-03-23T03:02:10;3.92;;;2.28;;
70455;SDS011;57916;51.996;5.180;2023-03-23T03:04:37;3.53;;;2.17;;
70455;SDS011;57916;51.996;5.180;2023-03-23T03:07:09;5.03;;;2.22;;
70455;SDS011;57916;51.996;5.180;2023-03-23T03:15:08;2.90;;;2.00;;
70455;SDS011;57916;51.996;5.180;2023-03-23T03:17:54;4.30;;;1.85;;
70455;SDS011;57916;51.996;5.180;2023-03-23T03:20:24;6.55;;;2.03;;
70455;SDS011;57916;51.996;5.180;2023-03-23T03:22:51;6.55;;;1.98;;
70455;SDS011;57916;51.996;5.180;2023-03-23T03:25:20;4.30;;;1.80;;
70455;SDS011;57916;51.996;5.180;2023-03-23T03:27:48;6.17;;;1.90;;
70455;SDS011;57916;51.996;5.180;2023-03-23T03:30:25;5.20;;;2.20;;
70455;SDS011;57916;51.996;5.180;2023-03-23T03:32:57;5.97;;;1.95;;
70455;SDS011;57916;51.996;5.180;2023-03-23T03:35:25;4.38;;;1.98;;
70455;SDS011;57916;51.996;5.180;2023-03-23T03:37:52;4.17;;;1.87;;
70455;SDS011;57916;51.996;5.180;2023-03-23T03:40:20;2.58;;;1.80;;
70455;SDS011;57916;51.996;5.180;2023-03-23T03:42:48;4.95;;;2.40;;
70455;SDS011;57916;51.996;5.180;2023-03-23T03:45:16;6.90;;;2.00;;
70455;SDS011;57916;51.996;5.180;2023-03-23T03:47:44;3.03;;;1.98;;
70455;SDS011;57916;51.996;5.180;2023-03-23T03:50:10;6.03;;;1.92;;
70455;SDS011;57916;51.996;5.180;2023-03-23T03:52:37;3.70;;;1.90;;
70455;SDS011;57916;51.996;5.180;2023-03-23T03:55:04;4.10;;;1.98;;
70455;SDS011;57916;51.996;5.180;2023-03-23T03:57:33;4.50;;;1.70;;
70455;SDS011;57916;51.996;5.180;2023-03-23T04:00:03;4.13;;;1.70;;
70455;SDS011;57916;51.996;5.180;2023-03-23T04:02:39;4.28;;;1.50;;
70455;SDS011;57916;51.996;5.180;2023-03-23T04:05:17;5.32;;;1.75;;
70455;SDS011;57916;51.996;5.180;2023-03-23T04:07:46;4.10;;;1.70;;
70455;SDS011;57916;51.996;5.180;2023-03-23T04:10:17;5.65;;;1.67;;
70455;SDS011;57916;51.996;5.180;2023-03-23T04:12:51;8.43;;;1.83;;
70455;SDS011;57916;51.996;5.180;2023-03-23T04:15:37;4.03;;;1.70;;
70455;SDS011;57916;51.996;5.180;2023-03-23T04:18:04;3.83;;;1.48;;
70455;SDS011;57916;51.996;5.180;2023-03-23T04:20:31;5.47;;;1.30;;
70455;SDS011;57916;51.996;5.180;2023-03-23T04:22:57;5.22;;;1.40;;
70455;SDS011;57916;51.996;5.180;2023-03-23T04:25:24;7.25;;;1.42;;
70455;SDS011;57916;51.996;5.180;2023-03-23T04:27:52;5.28;;;1.73;;
70455;SDS011;57916;51.996;5.180;2023-03-23T04:30:22;7.93;;;1.60;;
70455;SDS011;57916;51.996;5.180;2023-03-23T04:33:09;7.43;;;1.75;;
70455;SDS011;57916;51.996;5.180;2023-03-23T04:35:40;9.73;;;2.08;;
70455;SDS011;57916;51.996;5.180;2023-03-23T04:38:14;10.35;;;2.10;;
70455;SDS011;57916;51.996;5.180;2023-03-23T04:40:47;3.83;;;1.50;;
70455;SDS011;57916;51.996;5.180;2023-03-23T04:43:33;7.70;;;1.80;;
70455;SDS011;57916;51.996;5.180;2023-03-23T04:46:16;6.57;;;1.60;;
70455;SDS011;57916;51.996;5.180;2023-03-23T04:48:45;8.25;;;1.50;;
70455;SDS011;57916;51.996;5.180;2023-03-23T04:51:18;4.57;;;1.30;;
70455;SDS011;57916;51.996;5.180;2023-03-23T04:53:47;7.20;;;1.75;;
70455;SDS011;57916;51.996;5.180;2023-03-23T04:56:13;10.55;;;1.63;;
70455;SDS011;57916;51.996;5.180;2023-03-23T04:58:42;5.47;;;1.38;;
70455;SDS011;57916;51.996;5.180;2023-03-23T05:01:30;6.88;;;1.73;;
70455;SDS011;57916;51.996;5.180;2023-03-23T05:04:16;7.68;;;1.55;;
70455;SDS011;57916;51.996;5.180;2023-03-23T05:06:51;9.05;;;1.77;;
70455;SDS011;57916;51.996;5.180;2023-03-23T05:09:23;7.47;;;1.77;;
70455;SDS011;57916;51.996;5.180;2023-03-23T05:11:49;10.48;;;1.75;;
70455;SDS011;57916;51.996;5.180;2023-03-23T05:14:15;9.07;;;1.97;;
70455;SDS011;57916;51.996;5.180;2023-03-23T05:16:44;10.68;;;1.88;;
70455;SDS011;57916;51.996;5.180;2023-03-23T05:19:14;7.75;;;1.83;;
70455;SDS011;57916;51.996;5.180;2023-03-23T05:21:41;14.07;;;2.08;;
70455;SDS011;57916;51.996;5.180;2023-03-23T05:24:07;9.82;;;1.60;;
70455;SDS011;57916;51.996;5.180;2023-03-23T05:26:33;12.13;;;2.05;;
70455;SDS011;57916;51.996;5.180;2023-03-23T05:29:05;9.90;;;1.98;;
70455;SDS011;57916;51.996;5.180;2023-03-23T05:32:01;7.35;;;1.95;;
70455;SDS011;57916;51.996;5.180;2023-03-23T05:34:34;6.60;;;1.70;;
70455;SDS011;57916;51.996;5.180;2023-03-23T05:37:01;9.23;;;2.15;;
70455;SDS011;57916;51.996;5.180;2023-03-23T05:39:48;10.95;;;1.90;;
70455;SDS011;57916;51.996;5.180;2023-03-23T05:42:35;9.93;;;2.10;;
70455;SDS011;57916;51.996;5.180;2023-03-23T05:45:09;7.70;;;1.60;;
70455;SDS011;57916;51.996;5.180;2023-03-23T05:47:37;12.98;;;2.35;;
70455;SDS011;57916;51.996;5.180;2023-03-23T05:50:08;6.47;;;1.77;;
70455;SDS011;57916;51.996;5.180;2023-03-23T05:52:37;7.95;;;2.00;;
70455;SDS011;57916;51.996;5.180;2023-03-23T05:55:07;11.68;;;2.20;;
70455;SDS011;57916;51.996;5.180;2023-03-23T05:57:35;11.50;;;2.00;;
70455;SDS011;57916;51.996;5.180;2023-03-23T06:00:05;8.95;;;2.05;;
70455;SDS011;57916;51.996;5.180;2023-03-23T06:02:38;7.57;;;1.70;;
70455;SDS011;57916;51.996;5.180;2023-03-23T06:05:07;6.60;;;1.75;;
70455;SDS011;57916;51.996;5.180;2023-03-23T06:07:34;8.90;;;1.85;;
70455;SDS011;57916;51.996;5.180;2023-03-23T06:10:04;8.80;;;1.90;;
70455;SDS011;57916;51.996;5.180;2023-03-23T06:12:36;10.50;;;2.20;;
70455;SDS011;57916;51.996;5.180;2023-03-23T06:15:13;8.35;;;2.15;;
70455;SDS011;57916;51.996;5.180;2023-03-23T06:18:11;10.68;;;1.90;;
70455;SDS011;57916;51.996;5.180;2023-03-23T06:20:49;11.07;;;1.73;;
70455;SDS011;57916;51.996;5.180;2023-03-23T06:23:39;8.43;;;1.70;;
70455;SDS011;57916;51.996;5.180;2023-03-23T06:26:06;8.63;;;1.83;;
70455;SDS011;57916;51.996;5.180;2023-03-23T06:28:38;6.50;;;1.70;;
70455;SDS011;57916;51.996;5.180;2023-03-23T06:31:05;11.60;;;1.90;;
70455;SDS011;57916;51.996;5.180;2023-03-23T06:33:34;11.07;;;1.90;;
70455;SDS011;57916;51.996;5.180;2023-03-23T06:36:04;8.20;;;2.13;;
70455;SDS011;57916;51.996;5.180;2023-03-23T06:38:51;7.57;;;1.97;;
70455;SDS011;57916;51.996;5.180;2023-03-23T06:41:23;7.45;;;1.80;;
70455;SDS011;57916;51.996;5.180;2023-03-23T06:43:51;8.07;;;2.00;;
70455;SDS011;57916;51.996;5.180;2023-03-23T06:46:22;11.48;;;2.20;;
70455;SDS011;57916;51.996;5.180;2023-03-23T06:48:51;5.60;;;2.00;;
70455;SDS011;57916;51.996;5.180;2023-03-23T06:51:22;5.80;;;1.70;;
70455;SDS011;57916;51.996;5.180;2023-03-23T06:53:51;8.80;;;1.67;;
70455;SDS011;57916;51.996;5.180;2023-03-23T06:56:17;12.07;;;2.30;;
70455;SDS011;57916;51.996;5.180;2023-03-23T06:58:44;8.75;;;1.80;;
70455;SDS011;57916;51.996;5.180;2023-03-23T07:01:11;7.90;;;1.73;;
70455;SDS011;57916;51.996;5.180;2023-03-23T07:03:43;8.35;;;1.83;;
70455;SDS011;57916;51.996;5.180;2023-03-23T07:06:11;8.38;;;1.92;;
70455;SDS011;57916;51.996;5.180;2023-03-23T07:08:45;9.68;;;1.70;;
70455;SDS011;57916;51.996;5.180;2023-03-23T07:11:16;9.40;;;1.87;;
70455;SDS011;57916;51.996;5.180;2023-03-23T07:13:42;10.30;;;2.00;;
70455;SDS011;57916;51.996;5.180;2023-03-23T07:16:09;8.25;;;1.40;;
70455;SDS011;57916;51.996;5.180;2023-03-23T07:18:36;11.35;;;2.10;;
70455;SDS011;57916;51.996;5.180;2023-03-23T07:21:04;10.57;;;2.50;;
70455;SDS011;57916;51.996;5.180;2023-03-23T07:23:31;7.43;;;1.42;;
70455;SDS011;57916;51.996;5.180;2023-03-23T07:26:01;8.57;;;1.88;;
70455;SDS011;57916;51.996;5.180;2023-03-23T07:28:37;11.98;;;1.98;;
70455;SDS011;57916;51.996;5.180;2023-03-23T07:31:26;6.80;;;1.98;;
70455;SDS011;57916;51.996;5.180;2023-03-23T07:33:53;9.82;;;1.90;;
70455;SDS011;57916;51.996;5.180;2023-03-23T07:36:20;9.85;;;1.90;;
70455;SDS011;57916;51.996;5.180;2023-03-23T07:38:49;8.33;;;2.40;;
70455;SDS011;57916;51.996;5.180;2023-03-23T07:41:15;7.83;;;2.00;;
70455;SDS011;57916;51.996;5.180;2023-03-23T07:43:43;6.70;;;1.80;;
70455;SDS011;57916;51.996;5.180;2023-03-23T07:46:09;5.40;;;1.95;;
70455;SDS011;57916;51.996;5.180;2023-03-23T07:48:58;8.07;;;1.88;;
70455;SDS011;57916;51.996;5.180;2023-03-23T07:51:33;9.95;;;2.20;;
70455;SDS011;57916;51.996;5.180;2023-03-23T07:53:59;9.98;;;2.20;;
70455;SDS011;57916;51.996;5.180;2023-03-23T07:56:54;8.90;;;2.20;;
70455;SDS011;57916;51.996;5.180;2023-03-23T07:59:23;9.52;;;2.30;;
70455;SDS011;57916;51.996;5.180;2023-03-23T08:01:50;12.03;;;2.27;;
70455;SDS011;57916;51.996;5.180;2023-03-23T08:04:37;7.67;;;1.93;;
70455;SDS011;57916;51.996;5.180;2023-03-23T08:07:17;9.40;;;1.85;;
70455;SDS011;57916;51.996;5.180;2023-03-23T08:09:47;7.38;;;1.90;;
70455;SDS011;57916;51.996;5.180;2023-03-23T08:12:31;7.10;;;1.90;;
70455;SDS011;57916;51.996;5.180;2023-03-23T08:15:16;8.10;;;2.20;;
70455;SDS011;57916;51.996;5.180;2023-03-23T08:18:05;9.02;;;2.20;;
70455;SDS011;57916;51.996;5.180;2023-03-23T08:20:34;8.93;;;2.15;;
70455;SDS011;57916;51.996;5.180;2023-03-23T08:23:03;8.82;;;2.00;;
70455;SDS011;57916;51.996;5.180;2023-03-23T08:25:49;8.52;;;2.22;;
70455;SDS011;57916;51.996;5.180;2023-03-23T08:28:39;9.25;;;2.35;;
70455;SDS011;57916;51.996;5.180;2023-03-23T08:31:25;7.72;;;2.03;;
70455;SDS011;57916;51.996;5.180;2023-03-23T08:34:18;9.73;;;2.30;;
70455;SDS011;57916;51.996;5.180;2023-03-23T08:37:05;8.73;;;2.00;;
70455;SDS011;57916;51.996;5.180;2023-03-23T08:39:53;9.13;;;2.30;;
70455;SDS011;57916;51.996;5.180;2023-03-23T08:42:47;10.80;;;2.10;;
70455;SDS011;57916;51.996;5.180;2023-03-23T08:45:33;10.32;;;2.00;;
70455;SDS011;57916;51.996;5.180;2023-03-23T08:48:12;7.05;;;1.85;;
70455;SDS011;57916;51.996;5.180;2023-03-23T08:51:02;7.85;;;1.95;;
70455;SDS011;57916;51.996;5.180;2023-03-23T08:53:50;6.10;;;1.90;;
70455;SDS011;57916;51.996;5.180;2023-03-23T08:56:36;6.28;;;1.98;;
70455;SDS011;57916;51.996;5.180;2023-03-23T08:59:11;6.35;;;1.83;;
70455;SDS011;57916;51.996;5.180;2023-03-23T09:01:44;9.48;;;1.85;;
70455;SDS011;57916;51.996;5.180;2023-03-23T09:04:35;7.13;;;1.65;;
70455;SDS011;57916;51.996;5.180;2023-03-23T09:07:39;8.13;;;1.90;;
70455;SDS011;57916;51.996;5.180;2023-03-23T09:10:07;8.98;;;1.92;;
70455;SDS011;57916;51.996;5.180;2023-03-23T09:12:34;7.17;;;2.00;;
70455;SDS011;57916;51.996;5.180;2023-03-23T09:15:01;8.57;;;1.80;;
70455;SDS011;57916;51.996;5.180;2023-03-23T09:17:36;8.68;;;1.90;;
70455;SDS011;57916;51.996;5.180;2023-03-23T09:20:05;8.10;;;1.60;;
70455;SDS011;57916;51.996;5.180;2023-03-23T09:22:43;7.90;;;1.70;;
70455;SDS011;57916;51.996;5.180;2023-03-23T09:25:13;11.00;;;2.30;;
70455;SDS011;57916;51.996;5.180;2023-03-23T09:27:41;6.87;;;1.70;;
70455;SDS011;57916;51.996;5.180;2023-03-23T09:30:11;7.72;;;1.73;;
70455;SDS011;57916;51.996;5.180;2023-03-23T09:32:38;8.88;;;1.60;;
70455;SDS011;57916;51.996;5.180;2023-03-23T09:35:05;8.77;;;2.00;;
70455;SDS011;57916;51.996;5.180;2023-03-23T09:37:34;10.32;;;1.77;;
70455;SDS011;57916;51.996;5.180;2023-03-23T09:40:04;7.82;;;1.92;;
70455;SDS011;57916;51.996;5.180;2023-03-23T09:50:42;8.30;;;1.90;;
70455;SDS011;57916;51.996;5.180;2023-03-23T09:53:13;9.45;;;2.63;;
70455;SDS011;57916;51.996;5.180;2023-03-23T09:55:46;9.88;;;2.25;;
70455;SDS011;57916;51.996;5.180;2023-03-23T09:58:18;7.80;;;1.70;;
70455;SDS011;57916;51.996;5.180;2023-03-23T10:03:37;8.13;;;1.83;;
70455;SDS011;57916;51.996;5.180;2023-03-23T10:06:09;8.50;;;2.20;;
70455;SDS011;57916;51.996;5.180;2023-03-23T10:08:48;10.40;;;2.50;;
70455;SDS011;57916;51.996;5.180;2023-03-23T10:11:20;13.23;;;2.10;;
70455;SDS011;57916;51.996;5.180;2023-03-23T10:19:38;14.07;;;2.53;;
70455;SDS011;57916;51.996;5.180;2023-03-23T10:22:10;17.15;;;2.50;;
70455;SDS011;57916;51.996;5.180;2023-03-23T10:24:55;15.27;;;2.25;;
70455;SDS011;57916;51.996;5.180;2023-03-23T10:30:31;14.13;;;2.60;;
70455;SDS011;57916;51.996;5.180;2023-03-23T10:33:20;11.13;;;2.05;;
70455;SDS011;57916;51.996;5.180;2023-03-23T10:38:25;10.35;;;2.00;;
70455;SDS011;57916;51.996;5.180;2023-03-23T10:41:00;8.93;;;1.85;;
70455;SDS011;57916;51.996;5.180;2023-03-23T10:43:31;12.35;;;2.13;;
70455;SDS011;57916;51.996;5.180;2023-03-23T10:46:02;12.75;;;2.10;;
70455;SDS011;57916;51.996;5.180;2023-03-23T10:48:38;10.10;;;2.40;;
70455;SDS011;57916;51.996;5.180;2023-03-23T10:51:06;14.35;;;2.03;;
70455;SDS011;57916;51.996;5.180;2023-03-23T10:53:50;11.60;;;2.50;;
70455;SDS011;57916;51.996;5.180;2023-03-23T10:56:28;14.00;;;2.10;;
70455;SDS011;57916;51.996;5.180;2023-03-23T10:59:18;15.23;;;2.65;;
70455;SDS011;57916;51.996;5.180;2023-03-23T11:01:48;10.55;;;2.20;;
70455;SDS011;57916;51.996;5.180;2023-03-23T11:04:17;11.40;;;2.03;;
70455;SDS011;57916;51.996;5.180;2023-03-23T11:06:57;13.23;;;2.20;;
70455;SDS011;57916;51.996;5.180;2023-03-23T11:09:34;11.52;;;2.30;;
70455;SDS011;57916;51.996;5.180;2023-03-23T11:12:04;13.07;;;2.00;;
70455;SDS011;57916;51.996;5.180;2023-03-23T11:14:42;9.35;;;1.77;;
70455;SDS011;57916;51.996;5.180;2023-03-23T11:17:26;12.10;;;2.00;;
70455;SDS011;57916;51.996;5.180;2023-03-23T11:19:52;11.32;;;2.13;;
70455;SDS011;57916;51.996;5.180;2023-03-23T11:22:29;10.18;;;1.73;;
70455;SDS011;57916;51.996;5.180;2023-03-23T11:25:03;8.20;;;1.92;;
70455;SDS011;57916;51.996;5.180;2023-03-23T11:27:30;9.13;;;2.00;;
70455;SDS011;57916;51.996;5.180;2023-03-23T11:30:01;8.43;;;2.15;;
70455;SDS011;57916;51.996;5.180;2023-03-23T11:32:34;11.57;;;2.13;;
70455;SDS011;57916;51.996;5.180;2023-03-23T11:35:03;11.10;;;1.98;;
70455;SDS011;57916;51.996;5.180;2023-03-23T11:37:46;11.05;;;2.20;;
70455;SDS011;57916;51.996;5.180;2023-03-23T11:40:19;9.85;;;2.30;;
70455;SDS011;57916;51.996;5.180;2023-03-23T11:43:01;11.63;;;2.00;;
70455;SDS011;57916;51.996;5.180;2023-03-23T11:45:36;13.63;;;2.50;;
70455;SDS011;57916;51.996;5.180;2023-03-23T11:51:11;13.65;;;2.20;;
70455;SDS011;57916;51.996;5.180;2023-03-23T11:56:51;16.08;;;2.40;;
70455;SDS011;57916;51.996;5.180;2023-03-23T11:59:27;12.73;;;2.40;;
70455;SDS011;57916;51.996;5.180;2023-03-23T12:07:46;9.10;;;1.58;;
70455;SDS011;57916;51.996;5.180;2023-03-23T12:10:29;7.93;;;1.65;;
70455;SDS011;57916;51.996;5.180;2023-03-23T12:16:34;9.18;;;1.60;;
70455;SDS011;57916;51.996;5.180;2023-03-23T12:24:34;7.85;;;1.60;;
70455;SDS011;57916;51.996;5.180;2023-03-23T12:27:48;7.03;;;1.60;;
70455;SDS011;57916;51.996;5.180;2023-03-23T12:30:35;7.80;;;2.05;;
70455;SDS011;57916;51.996;5.180;2023-03-23T12:38:32;8.23;;;1.80;;
70455;SDS011;57916;51.996;5.180;2023-03-23T12:41:17;8.90;;;2.08;;
70455;SDS011;57916;51.996;5.180;2023-03-23T12:46:38;7.20;;;1.63;;
70455;SDS011;57916;51.996;5.180;2023-03-23T12:49:11;5.22;;;1.50;;
70455;SDS011;57916;51.996;5.180;2023-03-23T12:56:54;8.80;;;1.80;;
70455;SDS011;57916;51.996;5.180;2023-03-23T13:04:44;11.10;;;1.75;;
70455;SDS011;57916;51.996;5.180;2023-03-23T13:07:17;5.43;;;1.63;;
70455;SDS011;57916;51.996;5.180;2023-03-23T13:09:50;8.25;;;1.98;;
70455;SDS011;57916;51.996;5.180;2023-03-23T13:12:30;9.82;;;2.17;;
70455;SDS011;57916;51.996;5.180;2023-03-23T13:15:03;6.68;;;1.70;;
70455;SDS011;57916;51.996;5.180;2023-03-23T13:17:54;9.38;;;2.08;;
70455;SDS011;57916;51.996;5.180;2023-03-23T13:20:34;8.98;;;1.80;;
70455;SDS011;57916;51.996;5.180;2023-03-23T13:28:21;8.27;;;1.85;;
70455;SDS011;57916;51.996;5.180;2023-03-23T13:33:22;7.75;;;1.80;;
70455;SDS011;57916;51.996;5.180;2023-03-23T13:35:48;7.57;;;1.83;;
70455;SDS011;57916;51.996;5.180;2023-03-23T13:40:49;6.97;;;1.83;;
70455;SDS011;57916;51.996;5.180;2023-03-23T13:43:35;8.23;;;2.08;;
70455;SDS011;57916;51.996;5.180;2023-03-23T13:46:36;9.07;;;2.17;;
70455;SDS011;57916;51.996;5.180;2023-03-23T13:49:03;6.68;;;1.70;;
70455;SDS011;57916;51.996;5.180;2023-03-23T13:51:46;6.97;;;1.73;;
70455;SDS011;57916;51.996;5.180;2023-03-23T13:54:29;5.90;;;1.67;;
70455;SDS011;57916;51.996;5.180;2023-03-23T13:56:56;6.68;;;1.90;;
70455;SDS011;57916;51.996;5.180;2023-03-23T13:59:31;5.30;;;1.87;;
70455;SDS011;57916;51.996;5.180;2023-03-23T14:05:11;6.05;;;1.55;;
70455;SDS011;57916;51.996;5.180;2023-03-23T14:07:52;7.55;;;1.83;;
70455;SDS011;57916;51.996;5.180;2023-03-23T14:10:34;9.18;;;2.08;;
70455;SDS011;57916;51.996;5.180;2023-03-23T14:13:11;8.00;;;1.65;;
70455;SDS011;57916;51.996;5.180;2023-03-23T14:18:54;8.73;;;1.80;;
70455;SDS011;57916;51.996;5.180;2023-03-23T14:21:37;6.80;;;1.90;;
70455;SDS011;57916;51.996;5.180;2023-03-23T14:24:15;5.95;;;1.60;;
70455;SDS011;57916;51.996;5.180;2023-03-23T14:26:43;6.80;;;1.87;;
70455;SDS011;57916;51.996;5.180;2023-03-23T14:29:11;8.73;;;1.80;;
70455;SDS011;57916;51.996;5.180;2023-03-23T14:31:38;9.75;;;2.10;;
70455;SDS011;57916;51.996;5.180;2023-03-23T14:34:15;10.00;;;1.67;;
70455;SDS011;57916;51.996;5.180;2023-03-23T14:36:44;12.75;;;1.90;;
70455;SDS011;57916;51.996;5.180;2023-03-23T14:41:46;9.70;;;1.80;;
70455;SDS011;57916;51.996;5.180;2023-03-23T14:44:13;13.45;;;2.03;;
70455;SDS011;57916;51.996;5.180;2023-03-23T14:46:42;8.15;;;1.90;;
70455;SDS011;57916;51.996;5.180;2023-03-23T14:49:14;8.70;;;1.67;;
70455;SDS011;57916;51.996;5.180;2023-03-23T14:51:52;8.63;;;1.83;;
70455;SDS011;57916;51.996;5.180;2023-03-23T14:54:25;8.10;;;1.65;;
70455;SDS011;57916;51.996;5.180;2023-03-23T14:56:52;8.05;;;1.90;;
70455;SDS011;57916;51.996;5.180;2023-03-23T14:59:19;8.75;;;2.15;;
70455;SDS011;57916;51.996;5.180;2023-03-23T15:01:46;9.73;;;1.63;;
70455;SDS011;57916;51.996;5.180;2023-03-23T15:04:21;11.60;;;2.08;;
70455;SDS011;57916;51.996;5.180;2023-03-23T15:06:52;9.47;;;1.90;;
70455;SDS011;57916;51.996;5.180;2023-03-23T15:09:21;8.85;;;1.70;;
70455;SDS011;57916;51.996;5.180;2023-03-23T15:11:55;9.00;;;1.77;;
70455;SDS011;57916;51.996;5.180;2023-03-23T15:14:26;13.50;;;2.05;;
70455;SDS011;57916;51.996;5.180;2023-03-23T15:16:55;11.75;;;2.17;;
70455;SDS011;57916;51.996;5.180;2023-03-23T15:19:28;10.40;;;2.20;;
70455;SDS011;57916;51.996;5.180;2023-03-23T15:22:04;8.02;;;2.00;;
70455;SDS011;57916;51.996;5.180;2023-03-23T15:24:43;11.33;;;2.13;;
70455;SDS011;57916;51.996;5.180;2023-03-23T15:29:45;8.87;;;2.10;;
70455;SDS011;57916;51.996;5.180;2023-03-23T15:32:25;10.67;;;2.00;;
70455;SDS011;57916;51.996;5.180;2023-03-23T15:34:52;6.15;;;1.60;;
70455;SDS011;57916;51.996;5.180;2023-03-23T15:37:24;10.23;;;2.38;;
70455;SDS011;57916;51.996;5.180;2023-03-23T15:39:50;10.32;;;2.00;;
70455;SDS011;57916;51.996;5.180;2023-03-23T15:42:25;9.13;;;1.88;;
70455;SDS011;57916;51.996;5.180;2023-03-23T15:50:17;8.40;;;1.95;;
70455;SDS011;57916;51.996;5.180;2023-03-23T15:52:46;12.90;;;2.30;;
70455;SDS011;57916;51.996;5.180;2023-03-23T15:55:29;9.52;;;1.95;;
70455;SDS011;57916;51.996;5.180;2023-03-23T15:58:01;12.45;;;1.88;;
70455;SDS011;57916;51.996;5.180;2023-03-23T16:00:36;10.75;;;2.40;;
70455;SDS011;57916;51.996;5.180;2023-03-23T16:03:04;8.88;;;1.80;;
70455;SDS011;57916;51.996;5.180;2023-03-23T16:05:33;19.08;;;2.42;;
70455;SDS011;57916;51.996;5.180;2023-03-23T16:08:00;10.50;;;2.30;;
70455;SDS011;57916;51.996;5.180;2023-03-23T16:10:27;11.43;;;2.40;;
70455;SDS011;57916;51.996;5.180;2023-03-23T16:12:54;10.80;;;2.13;;
70455;SDS011;57916;51.996;5.180;2023-03-23T16:15:21;8.82;;;2.13;;
70455;SDS011;57916;51.996;5.180;2023-03-23T16:17:48;12.32;;;2.28;;
70455;SDS011;57916;51.996;5.180;2023-03-23T16:22:45;11.90;;;2.45;;
70455;SDS011;57916;51.996;5.180;2023-03-23T16:25:12;9.70;;;2.33;;
70455;SDS011;57916;51.996;5.180;2023-03-23T16:27:40;9.20;;;2.10;;
70455;SDS011;57916;51.996;5.180;2023-03-23T16:30:18;10.95;;;2.58;;
70455;SDS011;57916;51.996;5.180;2023-03-23T16:32:47;8.55;;;2.30;;
70455;SDS011;57916;51.996;5.180;2023-03-23T16:35:14;12.40;;;2.40;;
70455;SDS011;57916;51.996;5.180;2023-03-23T16:37:49;8.73;;;2.27;;
70455;SDS011;57916;51.996;5.180;2023-03-23T16:40:34;12.15;;;2.30;;
70455;SDS011;57916;51.996;5.180;2023-03-23T16:43:04;7.35;;;2.05;;
70455;SDS011;57916;51.996;5.180;2023-03-23T16:45:35;12.88;;;2.53;;
70455;SDS011;57916;51.996;5.180;2023-03-23T16:48:03;8.77;;;2.00;;
70455;SDS011;57916;51.996;5.180;2023-03-23T16:50:31;9.38;;;2.20;;
70455;SDS011;57916;51.996;5.180;2023-03-23T16:52:59;13.10;;;2.67;;
70455;SDS011;57916;51.996;5.180;2023-03-23T16:55:26;12.52;;;2.40;;
70455;SDS011;57916;51.996;5.180;2023-03-23T16:57:53;11.60;;;2.40;;
70455;SDS011;57916;51.996;5.180;2023-03-23T17:00:38;9.85;;;2.38;;
70455;SDS011;57916;51.996;5.180;2023-03-23T17:03:06;9.13;;;2.20;;
70455;SDS011;57916;51.996;5.180;2023-03-23T17:05:34;11.63;;;2.40;;
70455;SDS011;57916;51.996;5.180;2023-03-23T17:08:02;10.95;;;2.45;;
70455;SDS011;57916;51.996;5.180;2023-03-23T17:10:29;7.40;;;1.90;;
70455;SDS011;57916;51.996;5.180;2023-03-23T17:12:57;9.17;;;1.90;;
70455;SDS011;57916;51.996;5.180;2023-03-23T17:15:24;7.17;;;2.00;;